createdAt,value
2023-05-16T00:04:56.267Z,75534.94
2023-05-16T00:12:33.019Z,75547.19
2023-05-16T00:20:10.060Z,75553.31
2023-05-16T00:27:45.509Z,75567.59
2023-05-16T00:35:19.180Z,75569.63
2023-05-16T00:42:54.824Z,75579.84
2023-05-16T00:50:28.991Z,75579.84
2023-05-16T00:58:04.966Z,75594.13
2023-05-16T01:05:38.706Z,75610.44
2023-05-16T01:13:23.832Z,75641.06
2023-05-16T01:21:03.956Z,75669.63
2023-05-16T01:28:40.534Z,75675.75
2023-05-16T01:36:22.191Z,75704.31
2023-05-16T01:44:02.553Z,75730.84
2023-05-16T01:51:41.855Z,75765.53
2023-05-16T01:59:17.598Z,75781.88
2023-05-16T02:06:51.908Z,75792.06
2023-05-16T02:14:27.144Z,75808.41
2023-05-16T02:22:00.893Z,75822.69
2023-05-16T02:29:36.039Z,75851.25
2023-05-16T02:37:12.518Z,75859.41
2023-05-16T02:44:48.824Z,75883.91
2023-05-16T02:52:22.689Z,75892.06
2023-05-16T02:59:57.814Z,75910.44
2023-05-16T03:07:32.029Z,75936.97
2023-05-16T03:15:09.427Z,75959.41
2023-05-16T03:22:45.331Z,75969.63
2023-05-16T03:30:20.843Z,75975.75
2023-05-16T03:37:54.923Z,75983.91
2023-05-16T03:45:30.697Z,75996.16
2023-05-16T03:53:04.755Z,76014.53
2023-05-16T04:00:40.052Z,76028.81
2023-05-16T04:08:13.937Z,76067.59
2023-05-16T04:15:49.486Z,76063.50
2023-05-16T04:23:23.162Z,76085.94
2023-05-16T04:30:58.245Z,76106.38
2023-05-16T04:38:31.974Z,76108.41
2023-05-16T04:46:07.551Z,76130.84
2023-05-16T04:53:41.280Z,76143.09
2023-05-16T05:01:17.020Z,76153.31
2023-05-16T05:08:50.914Z,76163.50
2023-05-16T05:16:26.415Z,76171.69
2023-05-16T05:24:00.269Z,76181.88
2023-05-16T05:47:21.805Z,76177.78
2023-05-16T05:54:55.825Z,76181.88
2023-05-16T06:02:31.565Z,76171.69
2023-05-16T06:10:06.925Z,76163.50
2023-05-16T06:17:42.534Z,76165.56
2023-05-16T06:33:09.368Z,76159.44
2023-05-16T06:40:43.354Z,76175.75
2023-05-16T06:48:20.335Z,76202.28
2023-05-16T06:55:54.237Z,76192.09
2023-05-16T07:03:31.181Z,76210.44
2023-05-16T07:11:05.068Z,76206.38
2023-05-16T07:18:40.234Z,76192.09
2023-05-16T07:26:14.087Z,76198.22
2023-05-16T07:33:49.409Z,76192.09
2023-05-16T07:41:25.476Z,76167.59
2023-05-16T07:49:00.780Z,76175.75
2023-05-16T07:56:34.737Z,76173.72
2023-05-16T08:04:09.853Z,76161.47
2023-05-16T08:11:45.402Z,76167.59
2023-05-16T08:19:20.864Z,76198.22
2023-05-16T08:26:54.702Z,76200.25
2023-05-16T08:34:31.869Z,76212.50
2023-05-16T08:42:06.516Z,76214.53
2023-05-16T08:49:42.536Z,76208.41
2023-05-16T08:57:18.107Z,76208.41
2023-05-16T09:04:54.355Z,76210.44
2023-05-16T09:12:28.200Z,76210.44
2023-05-16T09:20:10.106Z,76216.56
2023-05-16T09:27:43.854Z,76218.63
2023-05-16T09:36:10.420Z,76204.31
2023-05-16T09:43:46.079Z,76183.91
2023-05-16T09:51:23.234Z,76183.91
2023-05-16T09:58:58.374Z,76188.00
2023-05-16T10:06:32.668Z,76185.97
2023-05-16T10:14:08.894Z,76177.78
2023-05-16T10:21:47.451Z,76169.63
2023-05-16T10:29:23.801Z,76157.38
2023-05-16T10:36:58.145Z,76126.78
2023-05-16T10:44:34.947Z,76126.78
2023-05-16T10:52:10.735Z,76132.91
2023-05-16T10:59:47.170Z,76116.56
2023-05-16T11:07:22.872Z,76100.25
2023-05-16T11:14:59.483Z,76104.31
2023-05-16T11:22:34.290Z,76118.59
2023-05-16T11:30:15.949Z,76151.25
2023-05-16T11:37:52.992Z,76153.31
2023-05-16T11:45:28.425Z,76145.13
2023-05-16T11:53:02.481Z,76079.81
2023-05-16T12:00:37.708Z,76014.53
2023-05-16T12:17:06.700Z,75994.13
2023-05-16T12:24:41.892Z,75955.34
2023-05-16T12:32:19.485Z,75955.34
2023-05-16T12:39:53.419Z,75941.06
2023-05-16T12:47:38.153Z,75912.47
2023-05-16T12:55:12.247Z,75857.38
2023-05-16T13:02:48.569Z,75867.56
2023-05-16T13:10:22.895Z,75865.53
2023-05-16T13:17:58.140Z,75845.13
2023-05-16T13:25:32.652Z,75824.72
2023-05-16T13:33:07.891Z,75798.19
2023-05-16T13:40:44.897Z,75806.34
2023-05-16T13:48:20.129Z,75800.22
2023-05-16T13:55:54.358Z,75814.53
2023-05-16T14:03:29.608Z,75767.59
2023-05-16T14:11:03.511Z,75788.00
2023-05-16T14:18:38.666Z,75759.41
2023-05-16T14:26:12.392Z,75712.47
2023-05-16T14:33:47.529Z,75722.69
2023-05-16T14:41:21.375Z,75739.00
2023-05-16T14:48:56.452Z,75716.56
2023-05-16T14:56:30.418Z,75612.50
2023-05-16T15:12:59.281Z,75571.69
2023-05-16T15:20:33.285Z,75553.31
2023-05-16T15:28:08.518Z,75581.88
2023-05-16T15:35:42.315Z,75498.22
2023-05-16T15:43:18.986Z,75496.16
2023-05-16T15:51:12.424Z,75541.06
2023-05-16T15:58:49.921Z,75532.91
2023-05-16T16:06:23.906Z,75573.72
2023-05-16T16:13:59.420Z,75541.06
2023-05-16T16:21:33.975Z,75573.72
2023-05-16T16:29:09.091Z,75590.03
2023-05-16T16:36:42.693Z,75559.44
2023-05-16T16:44:18.059Z,75596.16
2023-05-16T16:51:52.092Z,75622.69
2023-05-16T16:59:27.485Z,75639.00
2023-05-16T17:07:01.294Z,75671.66
2023-05-16T17:14:36.584Z,75734.94
2023-05-16T17:22:10.575Z,75739.00
2023-05-16T17:29:45.864Z,75759.41
2023-05-16T17:37:20.662Z,75783.91
2023-05-16T17:45:11.430Z,75820.63
2023-05-16T17:53:03.126Z,75824.72
2023-05-16T18:00:39.952Z,75883.91
2023-05-16T18:08:13.817Z,75900.22
2023-05-16T18:15:49.689Z,75939.00
2023-05-16T18:23:24.771Z,75963.50
2023-05-16T18:30:59.973Z,76006.34
2023-05-16T18:38:34.041Z,76055.34
2023-05-16T18:46:09.359Z,76073.72
2023-05-16T18:53:43.168Z,76112.50
2023-05-16T19:01:22.167Z,76136.97
2023-05-16T19:08:56.089Z,76171.69
2023-05-16T19:16:31.411Z,76188.00
2023-05-16T19:24:06.513Z,76212.50
2023-05-16T19:31:41.613Z,76239.03
2023-05-16T19:39:15.463Z,76296.19
2023-05-16T19:46:50.727Z,76330.88
2023-05-16T19:54:31.357Z,76381.91
2023-05-16T20:02:06.723Z,76410.47
2023-05-16T20:09:40.623Z,76416.59
2023-05-16T20:17:16.074Z,76437.00
2023-05-16T20:24:49.925Z,76457.44
2023-05-16T20:32:25.360Z,76469.66
2023-05-16T20:39:59.232Z,76479.88
2023-05-16T20:47:34.761Z,76502.34
2023-05-16T20:55:09.287Z,76514.56
2023-05-16T21:02:44.557Z,76543.16
2023-05-16T21:10:18.539Z,76559.47
2023-05-16T21:17:54.019Z,76569.69
2023-05-16T21:25:28.916Z,76583.97
2023-05-16T21:33:04.480Z,76596.22
2023-05-16T21:40:38.734Z,76602.34
2023-05-16T21:48:14.206Z,76612.56
2023-05-16T21:55:48.163Z,76624.81
2023-05-16T22:03:24.240Z,76624.81
2023-05-16T22:10:58.369Z,76639.09
2023-05-16T22:18:34.222Z,76645.22
2023-05-16T22:26:08.370Z,76663.59
2023-05-16T22:33:43.786Z,76684.00
2023-05-16T22:41:17.991Z,76688.09
2023-05-16T22:48:53.334Z,76692.16
2023-05-16T22:56:27.245Z,76702.38
2023-05-16T23:04:02.986Z,76712.56
2023-05-16T23:11:36.925Z,76722.78
2023-05-16T23:19:12.260Z,76751.38
2023-05-16T23:26:46.171Z,76767.69
2023-05-16T23:34:21.264Z,76777.91
2023-05-16T23:41:55.166Z,76792.19
2023-05-16T23:49:30.484Z,76806.47
2023-05-16T23:57:04.436Z,76828.94
